Lanes Prairie, Missouri
Current Conditions -  °F | °C
As of 4:53 AM on Saturday 25 Oct 2014 (Local Time) from KVIH Reporting Station
Few Clouds Few Clouds  
Wind Chill: 15°   Ceiling: Unl
Heat Index: 15°   Visibility: 8mi
Dew Point: 14°   Wind: 9mph
Humidity: 93%   Direction: 230°SW
Pressure: 30.01"   Gusts: NA
Location:  38.2601°N, 91.7526°W
Report Text: KVIH 250953Z AUTO 23008KT 8SM FEW046 15/14 A3001 RMK AO2 SLP155 T01500139
Loading
Personal Weather Stations






























Interactive Weather Map
Tropical Storm Tracking
New forecast layout! Learn more

10-Day Weather Forecast

Advertisements
Track Severe Weather on mobile